Time;durP1;ratioP1;P1;durP2;ratioP2;P2;SDS_P1;SDS_P2;PMS_P1;PMS_P2;Temp;Humidity;BMP_temperature;BMP_pressure;BME280_temperature;BME280_humidity;BME280_pressure;Samples;Min_cycle;Max_cycle;Signal;HPM_P1;HPM_P2
2021/12/12 00:07:44;;;;;;;102.60;37.00;;;;;;;-2.46;100.00;101111.34;20980834;28;20849;-59
2021/12/12 00:17:48;;;;;;;123.43;36.50;;;;;;;-2.64;100.00;101107.84;20970568;28;20257;-69
2021/12/12 00:57:42;;;;;;;93.83;30.17;;;;;;;-2.44;100.00;101104.41;21061282;27;20575;-68
2021/12/12 01:07:48;;;;;;;91.80;29.33;;;;;;;-2.31;100.00;101111.38;21055828;28;20776;-63
2021/12/12 01:17:56;;;;;;;93.83;30.40;;;;;;;-2.17;100.00;101101.78;21053080;28;20222;-61
2021/12/12 01:58:21;;;;;;;94.23;30.50;;;;;;;-1.92;100.00;101110.47;20986466;27;20577;-65
2021/12/12 02:38:47;;;;;;;92.73;33.07;;;;;;;-1.95;100.00;101129.69;20973856;28;20665;-60
2021/12/12 02:48:53;;;;;;;84.17;32.20;;;;;;;-1.90;100.00;101127.94;20973169;28;20237;-62
2021/12/12 03:08:59;;;;;;;94.40;32.97;;;;;;;-1.83;100.00;101161.06;21143685;27;20558;-60
2021/12/12 03:19:05;;;;;;;81.20;30.67;;;;;;;-1.71;100.00;101161.94;21140421;27;20690;-60
2021/12/12 03:29:08;;;;;;;83.23;28.73;;;;;;;-1.64;100.00;101154.06;21122239;27;20225;-61
2021/12/12 03:39:16;;;;;;;84.03;32.10;;;;;;;-1.70;100.00;101158.44;21139771;27;20239;-60
2021/12/12 04:09:15;;;;;;;86.97;31.27;;;;;;;-1.65;100.00;101172.38;21072002;27;20563;-60
2021/12/12 04:19:19;;;;;;;93.77;34.30;;;;;;;-1.59;100.00;101188.09;21057230;27;20593;-60
2021/12/12 04:29:34;;;;;;;96.53;35.47;;;;;;;-1.67;100.00;101208.13;21057039;27;20710;-62
2021/12/12 04:39:41;;;;;;;120.63;41.10;;;;;;;-1.78;100.00;101225.59;21054578;27;20313;-61
2021/12/12 04:49:56;;;;;;;125.17;41.63;;;;;;;-1.79;100.00;101239.53;21053846;27;20238;-61
2021/12/12 05:00:09;;;;;;;155.53;48.27;;;;;;;-1.84;100.00;101232.56;21053023;27;20317;-60
2021/12/12 05:10:21;;;;;;;127.40;42.37;;;;;;;-1.89;100.00;101250.00;21053161;27;20743;-62
2021/12/12 05:30:26;;;;;;;165.53;49.40;;;;;;;-1.98;100.00;101251.72;21064198;27;20580;-63
2021/12/12 05:40:32;;;;;;;134.27;43.83;;;;;;;-1.90;100.00;101263.94;21056017;28;20226;-62
2021/12/12 05:50:37;;;;;;;123.80;43.93;;;;;;;-1.86;100.00;101278.78;21050905;28;20236;-60
2021/12/12 06:00:48;;;;;;;125.17;45.00;;;;;;;-1.87;100.00;101286.63;21054676;28;20230;-60
2021/12/12 06:10:53;;;;;;;120.10;43.73;;;;;;;-1.81;100.00;101305.81;21087663;27;20268;-60
2021/12/12 06:30:53;;;;;;;115.70;38.67;;;;;;;-1.47;100.00;101322.44;21059241;27;20571;-61
2021/12/12 06:50:55;;;;;;;135.93;46.77;;;;;;;-1.42;100.00;101322.44;21059456;27;20624;-60
2021/12/12 07:10:55;;;;;;;146.57;52.10;;;;;;;-1.37;100.00;101331.19;21058121;27;20620;-63
2021/12/12 07:21:01;;;;;;;127.53;51.40;;;;;;;-1.32;100.00;101342.50;21056438;27;20304;-64
2021/12/12 07:31:09;;;;;;;147.53;57.53;;;;;;;-1.28;100.00;101352.13;21055366;27;20664;-61
2021/12/12 08:01:07;;;;;;;164.97;74.67;;;;;;;-1.62;100.00;101369.53;20989736;27;20622;-61
2021/12/12 08:11:12;;;;;;;149.37;67.80;;;;;;;-1.92;100.00;101398.19;20971888;28;20707;-61
2021/12/12 08:21:16;;;;;;;182.57;77.83;;;;;;;-2.19;100.00;101414.66;20971309;28;20583;-59
2021/12/12 08:41:25;;;;;;;157.57;65.50;;;;;;;-2.63;100.00;101423.09;20915860;27;20656;-61
2021/12/12 09:00:59;;;;;;;146.77;53.13;;;;;;;-2.61;100.00;101425.72;21065250;27;20594;-59
2021/12/12 09:11:10;;;;;;;142.43;50.57;;;;;;;-2.73;100.00;101420.41;21027168;28;20241;-59
2021/12/12 09:21:49;;;;;;;178.03;50.37;;;;;;;-2.43;100.00;101414.53;20948826;28;20257;-59
2021/12/12 10:02:18;;;;;;;79.17;36.20;;;;;;;-0.99;100.00;101374.81;21032925;27;20599;-63
2021/12/12 10:32:23;;;;;;;80.07;37.63;;;;;;;-0.90;100.00;101361.72;20936351;27;21056;-61
2021/12/12 10:42:36;;;;;;;79.17;32.73;;;;;;;-0.76;100.00;101386.16;20921806;28;20254;-63
2021/12/12 10:52:43;;;;;;;76.90;36.47;;;;;;;-0.87;100.00;101372.19;20921433;28;20230;-59
2021/12/12 11:03:04;;;;;;;74.27;32.53;;;;;;;-0.94;100.00;101370.44;20924966;28;20242;-59
2021/12/12 11:13:22;;;;;;;53.63;29.33;;;;;;;-0.84;100.00;101369.56;20919182;28;20320;-67
2021/12/12 11:23:34;;;;;;;71.93;28.33;;;;;;;-0.68;100.00;101379.16;20918825;28;20258;-68
2021/12/12 11:33:38;;;;;;;48.27;25.40;;;;;;;-0.77;100.00;101369.56;20918979;28;20222;-66
2021/12/12 11:53:53;;;;;;;47.43;24.70;;;;;;;-0.67;100.00;101377.41;21006768;27;20655;-67
2021/12/12 12:04:29;;;;;;;42.93;23.10;;;;;;;-0.54;100.00;101382.63;20988196;28;20315;-69
2021/12/12 12:14:46;;;;;;;41.17;20.73;;;;;;;-0.42;100.00;101371.25;20992324;28;20219;-63
2021/12/12 12:25:01;;;;;;;50.90;24.23;;;;;;;-0.33;100.00;101373.84;21002720;28;20844;-69
2021/12/12 12:55:26;;;;;;;47.17;22.90;;;;;;;-0.24;100.00;101341.47;20951893;27;20676;-60
2021/12/12 13:05:54;;;;;;;50.23;24.00;;;;;;;-0.16;100.00;101343.19;20930382;28;20235;-65
2021/12/12 13:16:07;;;;;;;54.13;23.37;;;;;;;-0.10;100.00;101344.88;20898270;28;20305;-63
2021/12/12 13:36:29;;;;;;;61.80;28.10;;;;;;;-0.26;100.00;101349.34;20998255;27;20571;-58
2021/12/12 13:56:37;;;;;;;62.60;28.50;;;;;;;-0.56;100.00;101363.41;21064940;27;20571;-59
2021/12/12 14:06:42;;;;;;;67.13;29.50;;;;;;;-0.65;100.00;101363.44;21054592;27;20287;-60
2021/12/12 14:16:50;;;;;;;62.90;27.87;;;;;;;-0.71;100.00;101355.56;21053965;27;20265;-65
2021/12/12 14:26:54;;;;;;;59.43;26.40;;;;;;;-0.76;100.00;101357.34;21054632;27;20234;-64
2021/12/12 14:37:04;;;;;;;51.23;24.20;;;;;;;-0.82;100.00;101368.69;21052285;27;20238;-61
2021/12/12 14:47:15;;;;;;;58.37;25.03;;;;;;;-0.79;100.00;101381.78;21053173;27;20742;-61
2021/12/12 14:57:25;;;;;;;56.00;22.93;;;;;;;-0.75;100.00;101369.56;21078808;27;20229;-58
2021/12/12 15:07:34;;;;;;;61.47;25.27;;;;;;;-0.80;100.00;101368.69;20959069;28;20310;-60
2021/12/12 15:17:40;;;;;;;66.77;30.27;;;;;;;-0.93;100.00;101391.41;20973048;28;20304;-60
2021/12/12 15:37:45;;;;;;;80.57;32.10;;;;;;;-1.08;100.00;101405.38;21055760;27;21169;-64
2021/12/12 15:47:51;;;;;;;67.03;29.07;;;;;;;-0.97;100.00;101399.28;21048212;27;20260;-63
2021/12/12 15:57:57;;;;;;;70.17;28.50;;;;;;;-0.95;100.00;101408.00;21046041;27;20935;-63
2021/12/12 16:08:02;;;;;;;70.23;28.60;;;;;;;-0.89;100.00;101397.53;21044781;27;20253;-62
2021/12/12 16:18:06;;;;;;;65.63;28.03;;;;;;;-0.83;100.00;101393.13;21066774;27;20230;-59
2021/12/12 16:28:14;;;;;;;68.53;27.83;;;;;;;-0.76;100.00;101394.03;21051998;27;20235;-66
2021/12/12 17:08:15;;;;;;;79.77;33.73;;;;;;;-0.80;100.00;101408.00;21098063;27;20660;-68
2021/12/12 17:28:17;;;;;;;69.70;27.17;;;;;;;-0.72;100.00;101401.88;21067313;27;20634;-63
2021/12/12 17:38:33;;;;;;;59.80;25.60;;;;;;;-0.71;100.00;101407.97;20928151;28;20231;-62
2021/12/12 17:48:57;;;;;;;65.03;27.70;;;;;;;-0.74;100.00;101402.75;20962100;27;20240;-65
2021/12/12 17:59:13;;;;;;;56.17;24.60;;;;;;;-0.73;100.00;101394.03;20963548;27;20235;-59
2021/12/12 18:09:37;;;;;;;54.00;25.10;;;;;;;-0.73;100.00;101391.41;20946107;28;20233;-66
2021/12/12 18:19:46;;;;;;;51.47;25.57;;;;;;;-0.78;100.00;101387.91;20945270;28;20231;-65
2021/12/12 18:39:52;;;;;;;59.57;24.83;;;;;;;-0.94;100.00;101394.03;21054502;27;20718;-66
2021/12/12 18:59:57;;;;;;;62.03;23.53;;;;;;;-0.95;100.00;101398.38;20938230;27;20631;-64
2021/12/12 20:45:54;;;;;;;76.27;26.80;;;;;;;-0.59;100.00;101428.94;20588032;27;21036;-63
2021/12/12 20:56:12;;;;;;;82.27;29.77;;;;;;;-0.58;100.00;101409.72;20760198;28;20292;-62
2021/12/12 21:06:31;;;;;;;79.63;28.40;;;;;;;-0.69;100.00;101379.16;20802953;28;20595;-61
2021/12/12 21:16:36;;;;;;;90.37;28.50;;;;;;;-0.53;100.00;101407.97;20810721;28;20242;-63
2021/12/12 21:26:41;;;;;;;90.70;28.23;;;;;;;-0.54;100.00;101403.59;20808550;28;20322;-59
2021/12/12 21:36:55;;;;;;;70.03;25.97;;;;;;;-0.44;100.00;101423.69;20810634;28;20227;-59
2021/12/12 21:47:18;;;;;;;86.70;28.17;;;;;;;-0.44;100.00;101428.94;20807999;28;20227;-58
2021/12/12 21:57:21;;;;;;;90.50;27.87;;;;;;;-0.44;100.00;101436.78;20750673;28;20232;-59
2021/12/12 22:07:25;;;;;;;90.00;27.07;;;;;;;-0.41;100.00;101423.69;20780171;28;20225;-58
2021/12/12 22:17:50;;;;;;;84.90;27.73;;;;;;;-0.42;100.00;101415.81;20826450;28;20224;-64
2021/12/12 22:27:55;;;;;;;102.20;27.43;;;;;;;-0.46;100.00;101399.22;20828552;28;20278;-64
2021/12/12 22:38:08;;;;;;;85.97;26.57;;;;;;;-0.48;100.00;101408.81;20829020;28;20658;-65
2021/12/12 22:48:22;;;;;;;73.23;24.73;;;;;;;-0.54;100.00;101424.56;20810412;28;20311;-62
2021/12/12 22:58:33;;;;;;;94.67;29.90;;;;;;;-0.60;100.00;101405.34;20827590;28;20227;-63
2021/12/12 23:08:42;;;;;;;92.57;25.83;;;;;;;-0.57;100.00;101414.09;20828098;28;20330;-64
2021/12/12 23:18:50;;;;;;;90.67;28.43;;;;;;;-0.62;100.00;101409.75;20828116;28;20767;-64
2021/12/12 23:39:22;;;;;;;96.03;27.20;;;;;;;-0.58;100.00;101403.59;20822312;28;20290;-63
2021/12/12 23:49:29;;;;;;;91.07;27.87;;;;;;;-0.58;100.00;101404.47;20821540;28;20220;-63
2021/12/12 23:59:51;;;;;;;101.80;29.33;;;;;;;-0.63;100.00;101401.00;20822944;28;20228;-63
